Time;durP1;ratioP1;P1;durP2;ratioP2;P2;SDS_P1;SDS_P2;PMS_P1;PMS_P2;Temp;Humidity;BMP_temperature;BMP_pressure;BME280_temperature;BME280_humidity;BME280_pressure;Samples;Min_cycle;Max_cycle;Signal;HPM_P1;HPM_P2
2020/12/12 00:01:48;;;;;;;9.30;7.40;;;6.60;99.90;;;;;;5093555;28;20236;-68
2020/12/12 00:04:13;;;;;;;10.77;7.60;;;6.50;99.90;;;;;;5093078;28;20174;-68
2020/12/12 00:06:39;;;;;;;11.43;7.73;;;6.50;99.90;;;;;;5093258;28;20195;-68
2020/12/12 00:09:04;;;;;;;10.97;8.03;;;6.50;99.90;;;;;;5093214;28;20237;-68
2020/12/12 00:11:30;;;;;;;9.17;7.70;;;6.40;99.90;;;;;;5093481;28;20167;-68
2020/12/12 00:13:55;;;;;;;10.70;7.83;;;6.60;99.90;;;;;;5094476;28;20171;-68
2020/12/12 00:16:21;;;;;;;11.13;8.20;;;6.70;99.90;;;;;;5093257;28;20611;-68
2020/12/12 00:18:47;;;;;;;9.57;7.43;;;6.60;99.90;;;;;;5092980;28;20624;-67
2020/12/12 00:21:13;;;;;;;10.10;7.70;;;6.70;99.90;;;;;;5093420;28;20465;-68
2020/12/12 00:23:40;;;;;;;8.10;6.15;;;6.60;99.90;;;;;;5093095;28;20575;-68
2020/12/12 00:26:06;;;;;;;7.90;6.45;;;6.70;99.90;;;;;;5093286;28;20223;-68
2020/12/12 00:28:33;;;;;;;9.77;7.65;;;6.70;99.90;;;;;;5092994;28;20175;-68
2020/12/12 00:30:59;;;;;;;12.07;7.63;;;6.80;99.90;;;;;;5093270;28;20175;-68
2020/12/12 00:33:25;;;;;;;11.03;6.80;;;6.70;99.90;;;;;;5092990;28;20225;-68
2020/12/12 00:35:50;;;;;;;7.23;6.50;;;6.80;99.90;;;;;;5092945;28;20785;-68
2020/12/12 00:38:16;;;;;;;9.43;6.77;;;6.70;99.90;;;;;;5093187;28;20677;-68
2020/12/12 00:40:42;;;;;;;9.27;8.00;;;6.70;99.90;;;;;;5093433;28;20198;-68
2020/12/12 00:43:07;;;;;;;8.73;7.07;;;6.80;99.90;;;;;;5092856;28;20170;-68
2020/12/12 00:45:33;;;;;;;7.87;6.50;;;6.70;99.90;;;;;;5092895;28;20164;-68
2020/12/12 00:47:58;;;;;;;8.77;6.53;;;6.80;99.90;;;;;;5093280;28;20187;-68
2020/12/12 00:50:24;;;;;;;9.50;7.20;;;6.70;99.90;;;;;;5092868;28;20167;-68
2020/12/12 00:52:50;;;;;;;8.00;6.70;;;6.90;99.90;;;;;;5092842;28;20174;-68
2020/12/12 00:55:16;;;;;;;9.38;6.75;;;7.00;99.90;;;;;;5092743;28;20671;-68
2020/12/12 00:57:41;;;;;;;8.17;6.10;;;6.90;99.90;;;;;;5092768;28;20199;-68
2020/12/12 01:00:07;;;;;;;14.00;7.63;;;6.80;99.90;;;;;;5092649;28;20231;-68
2020/12/12 01:02:33;;;;;;;7.30;6.13;;;6.80;99.90;;;;;;5092743;28;20159;-68
2020/12/12 01:05:00;;;;;;;8.03;7.00;;;6.80;99.90;;;;;;5092696;28;20246;-68
2020/12/12 01:07:26;;;;;;;12.07;6.35;;;6.70;99.90;;;;;;5092631;28;20694;-68
2020/12/12 01:09:52;;;;;;;9.50;6.00;;;6.70;99.90;;;;;;5092706;28;20180;-67
2020/12/12 01:12:18;;;;;;;8.53;6.50;;;6.80;99.90;;;;;;5092888;28;20171;-68
2020/12/12 01:14:44;;;;;;;9.18;7.05;;;6.90;99.90;;;;;;5093138;28;20172;-68
2020/12/12 01:17:09;;;;;;;6.57;5.88;;;6.90;99.90;;;;;;5095979;28;20213;-68
2020/12/12 01:19:35;;;;;;;8.67;6.27;;;6.90;99.90;;;;;;5096249;28;20672;-68
2020/12/12 01:22:00;;;;;;;8.13;6.40;;;6.90;99.90;;;;;;5096797;28;20168;-68
2020/12/12 01:24:26;;;;;;;8.17;6.30;;;6.90;99.90;;;;;;5096472;28;20171;-68
2020/12/12 01:26:51;;;;;;;8.40;7.00;;;7.00;99.90;;;;;;5096251;28;20555;-68
2020/12/12 01:29:17;;;;;;;7.10;5.93;;;7.00;99.90;;;;;;5096385;28;20171;-68
2020/12/12 01:31:46;;;;;;;8.70;5.80;;;6.90;99.90;;;;;;5096752;28;20179;-67
2020/12/12 01:34:12;;;;;;;10.43;7.38;;;7.00;99.90;;;;;;5096657;28;20565;-68
2020/12/12 01:36:37;;;;;;;8.00;6.40;;;7.00;99.90;;;;;;5096283;28;20226;-68
2020/12/12 01:39:03;;;;;;;6.70;5.17;;;7.00;99.90;;;;;;5096274;28;20175;-67
2020/12/12 01:41:28;;;;;;;7.23;5.40;;;7.00;99.90;;;;;;5096114;28;20282;-68
2020/12/12 01:43:54;;;;;;;7.77;6.23;;;7.00;99.90;;;;;;5095883;28;20179;-67
2020/12/12 01:46:27;;;;;;;8.83;6.50;;;7.00;99.90;;;;;;5095974;28;20264;-68
2020/12/12 01:48:55;;;;;;;7.15;5.60;;;7.00;99.90;;;;;;5096364;28;20166;-68
2020/12/12 01:51:25;;;;;;;9.30;7.05;;;7.10;99.90;;;;;;5095966;28;20580;-68
2020/12/12 01:53:57;;;;;;;7.35;6.60;;;7.00;99.90;;;;;;5095610;28;20640;-68
2020/12/12 01:56:23;;;;;;;9.93;6.50;;;7.00;99.90;;;;;;5095713;28;20739;-68
2020/12/12 01:58:49;;;;;;;9.52;7.07;;;6.80;99.90;;;;;;5095891;28;20182;-68
2020/12/12 02:01:15;;;;;;;9.10;6.50;;;7.00;99.90;;;;;;5095837;28;20195;-68
2020/12/12 02:03:44;;;;;;;8.48;6.10;;;7.10;99.90;;;;;;5095597;28;20163;-68
2020/12/12 02:06:14;;;;;;;8.25;6.07;;;7.10;99.90;;;;;;5095606;28;20191;-68
2020/12/12 02:08:40;;;;;;;7.43;5.90;;;7.20;99.90;;;;;;5095963;28;20235;-68
2020/12/12 02:11:12;;;;;;;8.75;6.97;;;7.10;99.90;;;;;;5095503;28;20313;-68
2020/12/12 02:13:43;;;;;;;10.05;6.03;;;7.20;99.90;;;;;;5095525;28;20211;-68
2020/12/12 02:16:09;;;;;;;7.82;5.65;;;7.20;99.90;;;;;;5095034;28;20754;-68
2020/12/12 02:18:38;;;;;;;8.83;6.53;;;7.20;99.90;;;;;;5095509;28;20253;-68
2020/12/12 02:21:04;;;;;;;8.82;6.40;;;7.20;99.90;;;;;;5095328;28;20206;-68
2020/12/12 02:23:30;;;;;;;9.02;7.30;;;7.20;99.90;;;;;;5095063;28;20285;-68
2020/12/12 02:25:56;;;;;;;8.77;7.80;;;7.10;99.90;;;;;;5094626;28;20651;-68
2020/12/12 02:28:25;;;;;;;8.98;7.65;;;7.10;99.90;;;;;;5095221;28;20167;-68
2020/12/12 02:30:51;;;;;;;9.63;6.82;;;7.20;99.90;;;;;;5095707;28;20206;-68
2020/12/12 02:33:17;;;;;;;11.20;7.90;;;7.30;99.90;;;;;;5094871;28;20195;-68
2020/12/12 02:35:43;;;;;;;9.02;6.85;;;7.20;99.90;;;;;;5094799;28;20176;-68
2020/12/12 02:38:08;;;;;;;9.20;6.80;;;7.20;99.90;;;;;;5094843;28;20535;-68
2020/12/12 02:40:34;;;;;;;9.00;6.73;;;7.20;99.90;;;;;;5094917;28;20556;-68
2020/12/12 02:43:00;;;;;;;11.47;8.33;;;7.20;99.90;;;;;;5094682;28;20667;-68
2020/12/12 02:45:26;;;;;;;9.90;8.05;;;7.20;99.90;;;;;;5094642;28;20175;-68
2020/12/12 02:47:52;;;;;;;10.73;8.00;;;7.20;99.90;;;;;;5094815;28;20182;-68
2020/12/12 02:50:28;;;;;;;9.93;8.27;;;7.30;99.90;;;;;;5094599;28;20171;-68
2020/12/12 02:52:54;;;;;;;9.50;7.70;;;7.20;99.90;;;;;;5094493;28;20187;-68
2020/12/12 02:55:20;;;;;;;9.60;7.63;;;7.20;99.90;;;;;;5094702;28;20186;-67
2020/12/12 02:57:46;;;;;;;11.57;8.77;;;7.20;99.90;;;;;;5094386;28;20198;-68
2020/12/12 03:00:15;;;;;;;11.40;8.60;;;7.20;99.90;;;;;;5094646;28;20237;-68
2020/12/12 03:02:40;;;;;;;11.43;8.40;;;7.20;99.90;;;;;;5094510;28;20167;-66
2020/12/12 03:05:07;;;;;;;11.33;8.17;;;7.10;99.90;;;;;;5094618;28;20569;-68
2020/12/12 03:07:33;;;;;;;11.20;8.57;;;7.00;99.90;;;;;;5094241;28;20801;-68
2020/12/12 03:10:00;;;;;;;11.52;8.20;;;6.90;99.90;;;;;;5095020;28;20175;-68
2020/12/12 03:12:26;;;;;;;12.82;8.60;;;7.10;99.90;;;;;;5095340;28;20164;-68
2020/12/12 03:14:51;;;;;;;13.70;8.93;;;7.10;99.90;;;;;;5094675;28;20651;-67
2020/12/12 03:17:17;;;;;;;12.27;9.43;;;7.10;99.90;;;;;;5093996;28;20423;-66
2020/12/12 03:19:42;;;;;;;12.13;9.60;;;7.20;99.90;;;;;;5094128;28;20191;-68
2020/12/12 03:22:08;;;;;;;13.80;10.40;;;7.20;99.90;;;;;;5093980;28;20164;-68
2020/12/12 03:24:34;;;;;;;13.70;9.67;;;7.20;99.90;;;;;;5093940;28;20166;-66
2020/12/12 03:27:00;;;;;;;12.83;8.97;;;7.20;99.90;;;;;;5094904;28;20195;-67
2020/12/12 03:29:26;;;;;;;13.23;9.63;;;7.30;99.90;;;;;;5094074;28;20406;-67
2020/12/12 03:31:51;;;;;;;14.50;9.43;;;7.30;99.90;;;;;;5093808;28;20248;-68
2020/12/12 03:34:17;;;;;;;12.57;9.43;;;7.40;99.90;;;;;;5094016;28;20163;-68
2020/12/12 03:36:43;;;;;;;12.80;10.20;;;7.30;99.90;;;;;;5093747;28;20232;-68
2020/12/12 03:39:08;;;;;;;12.07;9.23;;;7.40;99.90;;;;;;5092937;28;20167;-68
2020/12/12 03:41:34;;;;;;;9.17;7.80;;;7.40;99.90;;;;;;5093563;28;20221;-68
2020/12/12 03:43:59;;;;;;;12.50;10.27;;;7.40;99.90;;;;;;5093863;28;20166;-67
2020/12/12 03:46:25;;;;;;;13.43;9.60;;;7.30;99.90;;;;;;5093487;28;20777;-68
2020/12/12 03:48:50;;;;;;;15.23;11.10;;;7.30;99.90;;;;;;5093688;28;20160;-67
2020/12/12 03:51:16;;;;;;;13.63;10.63;;;7.40;99.90;;;;;;5093735;28;20647;-68
2020/12/12 03:53:42;;;;;;;13.23;9.20;;;7.40;99.90;;;;;;5093910;28;20535;-68
2020/12/12 03:56:07;;;;;;;14.03;9.33;;;7.10;99.90;;;;;;5093514;28;20433;-66
2020/12/12 03:58:33;;;;;;;12.93;9.17;;;7.30;99.90;;;;;;5093407;28;20257;-68
2020/12/12 04:00:58;;;;;;;13.23;10.17;;;7.50;99.90;;;;;;5093798;28;20191;-68
2020/12/12 04:03:24;;;;;;;13.67;10.57;;;7.50;99.90;;;;;;5093324;28;20258;-68
2020/12/12 04:05:49;;;;;;;13.20;9.70;;;7.40;99.90;;;;;;5093755;28;20171;-66
2020/12/12 04:08:15;;;;;;;13.43;10.17;;;7.40;99.90;;;;;;5093571;28;20168;-68
2020/12/12 04:10:41;;;;;;;13.27;9.60;;;7.50;99.90;;;;;;5093584;28;20175;-68
2020/12/12 04:13:07;;;;;;;12.00;9.77;;;7.50;99.90;;;;;;5093121;28;20199;-68
2020/12/12 04:15:33;;;;;;;14.98;10.88;;;7.40;99.90;;;;;;5093394;28;20704;-68
2020/12/12 04:17:58;;;;;;;11.17;9.07;;;7.40;99.90;;;;;;5092968;28;20294;-68
2020/12/12 04:20:24;;;;;;;13.53;9.60;;;7.40;99.90;;;;;;5093065;28;21034;-68
2020/12/12 04:22:49;;;;;;;10.87;8.63;;;7.50;99.90;;;;;;5093303;28;20197;-68
2020/12/12 04:25:15;;;;;;;13.30;9.67;;;7.40;99.90;;;;;;5093090;28;20168;-68
2020/12/12 04:27:42;;;;;;;13.23;9.60;;;7.40;99.90;;;;;;5093001;28;20187;-66
2020/12/12 04:30:07;;;;;;;11.18;8.40;;;7.50;99.90;;;;;;5093019;28;20262;-67
2020/12/12 04:32:33;;;;;;;10.90;8.20;;;7.50;99.90;;;;;;5093006;28;20609;-67
2020/12/12 04:34:59;;;;;;;12.30;9.90;;;7.50;99.90;;;;;;5092963;28;20176;-68
2020/12/12 04:37:24;;;;;;;14.10;9.40;;;7.40;99.90;;;;;;5093071;28;20195;-67
2020/12/12 04:39:50;;;;;;;17.30;10.67;;;7.40;99.90;;;;;;5092834;28;20217;-67
2020/12/12 04:42:17;;;;;;;14.57;10.20;;;7.20;99.90;;;;;;5092882;28;20178;-68
2020/12/12 04:44:43;;;;;;;14.15;10.02;;;7.30;99.90;;;;;;5093118;28;20179;-67
2020/12/12 04:47:10;;;;;;;12.35;9.18;;;7.40;99.90;;;;;;5093076;28;20191;-67
2020/12/12 04:49:35;;;;;;;12.93;8.52;;;7.40;99.90;;;;;;5094266;28;20174;-68
2020/12/12 04:52:05;;;;;;;14.93;9.50;;;7.40;99.90;;;;;;5097417;28;20535;-68
2020/12/12 04:54:33;;;;;;;16.13;10.50;;;7.50;99.90;;;;;;5096759;28;20156;-67
2020/12/12 04:57:03;;;;;;;16.50;9.60;;;7.50;99.90;;;;;;5096642;28;20664;-68
2020/12/12 04:59:31;;;;;;;10.95;8.57;;;7.40;99.90;;;;;;5096684;28;20632;-68
2020/12/12 05:02:02;;;;;;;12.13;10.00;;;7.50;99.90;;;;;;5096893;28;20187;-68
2020/12/12 05:04:28;;;;;;;15.02;10.50;;;7.30;99.90;;;;;;5096882;28;20217;-68
2020/12/12 05:06:54;;;;;;;11.30;9.57;;;7.40;99.90;;;;;;5096533;28;20191;-68
2020/12/12 05:09:19;;;;;;;12.10;9.13;;;7.50;99.90;;;;;;5096825;28;20597;-68
2020/12/12 05:11:48;;;;;;;14.90;10.90;;;7.50;99.90;;;;;;5097053;28;20235;-68
2020/12/12 05:14:15;;;;;;;16.90;10.95;;;7.60;99.90;;;;;;5096375;28;20258;-68
2020/12/12 05:19:10;;;;;;;18.63;10.20;;;7.40;99.90;;;;;;5035354;28;20210;-64
2020/12/12 05:21:54;;;;;;;12.23;10.05;;;7.60;99.90;;;;;;5036338;28;20233;-67
2020/12/12 05:24:24;;;;;;;12.55;9.35;;;7.60;99.90;;;;;;5036195;28;20208;-67
2020/12/12 05:26:50;;;;;;;20.25;11.60;;;7.40;99.90;;;;;;5036010;28;20634;-66
2020/12/12 05:29:16;;;;;;;13.83;10.20;;;7.30;99.90;;;;;;5035978;28;20177;-66
2020/12/12 05:31:42;;;;;;;14.77;11.00;;;7.30;1.00;;;;;;5035833;28;20297;-66
2020/12/12 05:34:13;;;;;;;16.50;11.02;;;7.50;99.90;;;;;;5035907;28;20173;-66
2020/12/12 05:36:41;;;;;;;14.40;11.35;;;7.60;99.90;;;;;;5036105;28;20165;-66
2020/12/12 05:39:12;;;;;;;14.52;10.63;;;7.40;99.90;;;;;;5035748;28;20173;-67
2020/12/12 05:41:38;;;;;;;13.68;10.52;;;7.50;1.00;;;;;;5035948;28;20185;-66
2020/12/12 05:44:04;;;;;;;13.48;9.60;;;7.60;99.90;;;;;;5035879;28;20201;-66
2020/12/12 05:46:31;;;;;;;14.07;10.93;;;7.70;99.90;;;;;;5035955;28;20638;-66
2020/12/12 05:48:57;;;;;;;15.05;10.75;;;7.50;99.90;;;;;;5035457;28;20227;-66
2020/12/12 05:51:25;;;;;;;14.52;10.35;;;7.60;99.90;;;;;;5035617;28;20220;-66
2020/12/12 05:53:51;;;;;;;14.50;10.88;;;7.50;99.90;;;;;;5035525;28;20542;-66
2020/12/12 05:56:17;;;;;;;15.60;11.43;;;7.50;99.90;;;;;;5035468;28;20177;-66
2020/12/12 05:58:46;;;;;;;16.30;10.05;;;7.50;99.90;;;;;;5035380;28;20194;-66
2020/12/12 06:01:20;;;;;;;13.68;10.98;;;7.50;99.90;;;;;;5035029;28;20311;-66
2020/12/12 06:04:07;;;;;;;14.95;11.05;;;7.50;99.90;;;;;;5035615;28;20149;-66
2020/12/12 06:06:41;;;;;;;11.98;9.52;;;7.50;99.90;;;;;;5035316;28;20154;-66
2020/12/12 06:09:13;;;;;;;13.90;9.50;;;7.60;99.90;;;;;;5035186;28;20165;-66
2020/12/12 06:11:41;;;;;;;12.52;9.07;;;7.50;99.90;;;;;;5035473;28;20145;-68
2020/12/12 06:14:07;;;;;;;11.93;8.95;;;7.50;99.90;;;;;;5035096;28;20567;-67
2020/12/12 06:16:34;;;;;;;12.43;9.87;;;7.60;99.90;;;;;;5033773;28;20186;-67
2020/12/12 06:19:09;;;;;;;11.20;9.23;;;7.50;99.90;;;;;;5034971;28;20460;-66
2020/12/12 06:21:35;;;;;;;13.98;9.35;;;7.50;99.90;;;;;;5034887;28;20653;-67
2020/12/12 06:24:04;;;;;;;13.00;9.45;;;7.50;99.90;;;;;;5034965;28;20248;-67
2020/12/12 06:26:52;;;;;;;13.13;9.65;;;7.70;99.90;;;;;;5035172;28;20174;-67
2020/12/12 06:29:19;;;;;;;10.80;8.27;;;7.60;99.90;;;;;;5035021;28;20156;-67
2020/12/12 06:31:45;;;;;;;12.30;9.38;;;7.50;99.90;;;;;;5034598;28;20173;-67
2020/12/12 06:34:12;;;;;;;10.02;8.50;;;7.50;99.90;;;;;;5034565;28;20245;-66
2020/12/12 06:36:44;;;;;;;10.80;8.18;;;7.70;99.90;;;;;;5034568;28;20566;-67
2020/12/12 06:39:23;;;;;;;13.27;8.75;;;7.70;99.90;;;;;;5034915;28;20244;-67
2020/12/12 06:41:54;;;;;;;11.77;9.20;;;7.70;99.90;;;;;;5034585;28;20158;-67
2020/12/12 06:44:30;;;;;;;12.68;9.27;;;7.70;99.90;;;;;;5034898;28;20249;-67
2020/12/12 06:46:56;;;;;;;11.02;8.02;;;7.70;99.90;;;;;;5033222;28;20546;-67
2020/12/12 06:49:22;;;;;;;9.90;8.03;;;7.70;99.90;;;;;;5033467;28;20169;-67
2020/12/12 06:51:51;;;;;;;11.60;8.17;;;7.70;99.90;;;;;;5034389;28;20489;-67
2020/12/12 06:54:18;;;;;;;12.20;7.95;;;7.70;99.90;;;;;;5034359;28;20166;-66
2020/12/12 06:56:44;;;;;;;9.75;8.35;;;7.70;99.90;;;;;;5034593;28;20173;-66
2020/12/12 06:59:28;;;;;;;9.03;7.97;;;7.80;99.90;;;;;;5034306;28;20639;-66
2020/12/12 07:01:55;;;;;;;11.85;8.27;;;7.80;99.90;;;;;;5034376;28;20207;-66
2020/12/12 07:04:26;;;;;;;9.90;8.20;;;7.80;99.90;;;;;;5034189;28;20247;-66
2020/12/12 07:07:00;;;;;;;9.73;7.55;;;7.80;99.90;;;;;;5034344;28;20239;-66
2020/12/12 07:09:27;;;;;;;10.05;7.85;;;7.70;99.90;;;;;;5034567;28;20279;-67
2020/12/12 07:11:53;;;;;;;12.00;8.88;;;7.80;99.90;;;;;;5033984;28;20165;-66
2020/12/12 07:14:19;;;;;;;11.00;8.65;;;7.90;99.90;;;;;;5031768;28;20198;-67
2020/12/12 07:16:44;;;;;;;11.40;8.40;;;7.90;99.90;;;;;;5033758;28;20244;-67
2020/12/12 07:19:11;;;;;;;10.90;8.50;;;7.80;99.90;;;;;;5034275;28;20166;-67
2020/12/12 07:21:40;;;;;;;14.10;9.98;;;7.90;99.90;;;;;;5032362;28;20224;-67
2020/12/12 07:24:06;;;;;;;10.35;7.28;;;7.80;99.90;;;;;;5034057;28;20252;-66
2020/12/12 07:26:32;;;;;;;8.80;7.82;;;7.80;99.90;;;;;;5033767;28;20223;-66
2020/12/12 07:28:58;;;;;;;9.63;8.25;;;7.70;99.90;;;;;;5033604;28;20190;-67
2020/12/12 07:31:23;;;;;;;7.10;5.97;;;7.80;99.90;;;;;;5033621;28;20601;-67
2020/12/12 07:33:49;;;;;;;10.77;7.77;;;7.80;99.90;;;;;;5033803;28;20535;-66
2020/12/12 07:36:15;;;;;;;8.60;6.77;;;7.90;99.90;;;;;;5033748;28;20214;-66
2020/12/12 07:38:43;;;;;;;8.03;6.70;;;7.90;99.90;;;;;;5032223;28;20225;-66
2020/12/12 07:41:14;;;;;;;9.73;7.72;;;7.90;99.90;;;;;;5033395;28;20201;-66
2020/12/12 07:43:53;;;;;;;11.00;8.50;;;7.90;99.90;;;;;;5033390;28;20200;-66
2020/12/12 07:46:19;;;;;;;9.75;8.02;;;7.70;99.90;;;;;;5033411;28;20165;-66
2020/12/12 07:48:45;;;;;;;8.67;7.27;;;7.70;1.00;;;;;;5033366;28;20240;-66
2020/12/12 07:51:14;;;;;;;9.87;7.50;;;7.90;1.00;;;;;;5033325;28;20256;-67
2020/12/12 07:53:40;;;;;;;7.95;7.15;;;7.90;1.00;;;;;;5033512;28;20173;-66
2020/12/12 07:56:06;;;;;;;9.37;7.80;;;7.80;1.00;;;;;;5033309;28;20574;-66
2020/12/12 07:58:35;;;;;;;11.13;7.95;;;7.90;1.00;;;;;;5033118;28;20589;-66
2020/12/12 08:01:04;;;;;;;11.20;9.20;;;7.80;1.00;;;;;;5033115;28;20650;-66
2020/12/12 08:03:30;;;;;;;10.07;7.25;;;7.70;1.00;;;;;;5033608;28;20538;-66
2020/12/12 08:06:10;;;;;;;10.27;7.30;;;7.80;99.90;;;;;;5033353;28;20173;-66
2020/12/12 08:08:37;;;;;;;9.85;7.43;;;7.90;99.90;;;;;;5032015;28;20233;-67
2020/12/12 08:11:05;;;;;;;10.05;7.85;;;7.80;99.90;;;;;;5033408;28;20507;-67
2020/12/12 08:13:31;;;;;;;9.50;7.38;;;7.60;1.00;;;;;;5033102;28;20172;-68
2020/12/12 08:16:00;;;;;;;11.80;8.45;;;7.40;1.00;;;;;;5031638;28;20257;-67
2020/12/12 08:18:25;;;;;;;9.57;7.57;;;7.40;1.00;;;;;;5032822;28;20262;-67
2020/12/12 08:20:51;;;;;;;9.03;6.83;;;7.60;99.90;;;;;;5031647;28;20197;-67
2020/12/12 08:23:18;;;;;;;8.97;6.90;;;7.80;1.00;;;;;;5033086;28;20165;-67
2020/12/12 08:25:43;;;;;;;9.70;7.60;;;7.80;99.90;;;;;;5038841;28;20177;-67
2020/12/12 08:28:09;;;;;;;8.83;7.10;;;7.40;99.90;;;;;;5039670;28;20259;-67
2020/12/12 08:30:35;;;;;;;9.40;7.23;;;7.60;1.00;;;;;;5040340;28;20166;-67
2020/12/12 08:33:11;;;;;;;10.43;7.90;;;7.60;1.00;;;;;;5039653;28;20408;-67
2020/12/12 08:35:37;;;;;;;11.73;7.38;;;7.60;1.00;;;;;;5039723;28;20169;-67
2020/12/12 08:38:12;;;;;;;8.57;6.80;;;7.70;99.90;;;;;;5039561;28;20219;-67
2020/12/12 08:40:48;;;;;;;9.77;7.40;;;7.70;99.90;;;;;;5039330;28;20197;-67
2020/12/12 08:43:15;;;;;;;10.00;7.47;;;7.70;99.90;;;;;;5039440;28;20172;-67
2020/12/12 08:45:55;;;;;;;10.75;6.40;;;7.50;99.90;;;;;;5039299;28;20201;-66
2020/12/12 08:48:29;;;;;;;6.97;6.13;;;7.70;99.90;;;;;;5039512;28;20185;-67
2020/12/12 08:50:56;;;;;;;10.60;6.63;;;7.80;99.90;;;;;;5039209;28;20165;-67
2020/12/12 08:53:29;;;;;;;7.97;7.03;;;7.70;1.00;;;;;;5039684;28;20177;-67
2020/12/12 08:56:03;;;;;;;9.48;7.20;;;7.60;1.00;;;;;;5039577;28;20157;-67
2020/12/12 08:58:36;;;;;;;8.32;6.65;;;7.50;99.90;;;;;;5041478;28;20194;-67
2020/12/12 09:01:31;;;;;;;7.07;6.25;;;7.60;99.90;;;;;;5045267;28;20194;-68
2020/12/12 09:04:20;;;;;;;9.85;6.85;;;7.70;1.00;;;;;;5044128;28;20172;-67
2020/12/12 09:07:23;;;;;;;6.45;5.32;;;7.70;99.90;;;;;;5044703;28;20173;-68
2020/12/12 09:10:12;;;;;;;7.80;5.97;;;7.80;99.90;;;;;;5046473;28;20541;-66
2020/12/12 09:12:45;;;;;;;8.18;6.30;;;7.80;1.00;;;;;;5038596;28;20514;-67
2020/12/12 09:15:13;;;;;;;8.55;6.45;;;7.80;99.90;;;;;;5042384;28;20261;-67
2020/12/12 09:17:40;;;;;;;8.40;7.15;;;7.90;1.00;;;;;;5038929;28;20201;-66
2020/12/12 09:20:07;;;;;;;7.78;6.97;;;7.80;99.90;;;;;;5039344;28;20232;-66
2020/12/12 09:22:33;;;;;;;10.85;7.30;;;7.60;1.00;;;;;;5039322;28;20761;-66
2020/12/12 09:24:59;;;;;;;8.93;6.90;;;7.80;99.90;;;;;;5039059;28;20537;-66
2020/12/12 09:27:24;;;;;;;8.30;7.00;;;7.90;99.90;;;;;;5039548;28;20185;-67
2020/12/12 09:29:50;;;;;;;9.47;7.57;;;8.10;99.90;;;;;;5039634;28;20169;-66
2020/12/12 09:32:15;;;;;;;9.03;7.07;;;8.10;1.00;;;;;;5038945;28;20173;-67
2020/12/12 09:34:41;;;;;;;8.93;7.27;;;8.00;99.90;;;;;;5039277;28;20176;-68
2020/12/12 09:37:06;;;;;;;6.63;5.27;;;8.00;99.90;;;;;;5035225;28;20655;-68
2020/12/12 09:39:32;;;;;;;8.83;6.40;;;8.10;99.90;;;;;;5035648;28;20169;-68
2020/12/12 09:41:58;;;;;;;6.43;5.77;;;8.20;99.90;;;;;;5035968;28;20653;-68
2020/12/12 09:44:25;;;;;;;9.43;6.75;;;8.20;1.00;;;;;;5035749;28;20165;-68
2020/12/12 09:46:51;;;;;;;9.48;7.80;;;8.40;1.00;;;;;;5035900;28;20166;-68
2020/12/12 09:49:16;;;;;;;8.93;7.33;;;8.30;1.00;;;;;;5035595;28;20213;-68
2020/12/12 09:51:45;;;;;;;7.10;6.00;;;8.30;38.80;;;;;;5035586;28;20170;-66
2020/12/12 09:54:10;;;;;;;11.15;7.35;;;8.20;99.90;;;;;;5035600;28;20179;-67
2020/12/12 09:56:36;;;;;;;7.60;6.30;;;8.30;1.00;;;;;;5035466;28;20172;-67
2020/12/12 09:59:03;;;;;;;8.15;6.85;;;8.20;1.00;;;;;;5035658;28;20658;-67
2020/12/12 10:01:28;;;;;;;8.57;7.10;;;8.30;1.00;;;;;;5035153;28;20201;-67
2020/12/12 10:03:54;;;;;;;7.90;5.63;;;8.40;99.90;;;;;;5035666;28;20177;-67
2020/12/12 10:06:19;;;;;;;7.70;6.40;;;8.50;99.90;;;;;;5035554;28;20583;-67
2020/12/12 10:08:45;;;;;;;7.70;6.50;;;8.40;1.00;;;;;;5035274;28;20777;-66
2020/12/12 10:11:10;;;;;;;8.80;6.10;;;8.40;51.10;;;;;;5035390;28;20177;-66
2020/12/12 10:13:36;;;;;;;6.97;5.97;;;8.50;99.90;;;;;;5035400;28;20184;-67
2020/12/12 10:16:02;;;;;;;9.00;6.83;;;8.40;99.90;;;;;;5035034;28;20178;-67
2020/12/12 10:18:28;;;;;;;8.07;6.55;;;8.50;91.00;;;;;;5036458;28;20229;-66
2020/12/12 10:20:54;;;;;;;7.97;6.30;;;8.50;99.90;;;;;;5035038;28;20551;-67
2020/12/12 10:23:20;;;;;;;7.63;6.83;;;8.40;99.90;;;;;;5035040;28;20406;-67
2020/12/12 10:25:45;;;;;;;8.40;6.70;;;8.30;99.90;;;;;;5035494;28;20196;-66
2020/12/12 10:28:11;;;;;;;12.93;7.23;;;8.30;1.00;;;;;;5035671;28;20192;-67
2020/12/12 10:30:37;;;;;;;9.70;6.97;;;8.30;1.00;;;;;;5034584;28;20400;-67
2020/12/12 10:33:03;;;;;;;9.13;7.20;;;8.20;17.70;;;;;;5035007;28;20243;-67
2020/12/12 10:35:30;;;;;;;10.35;7.75;;;8.10;99.90;;;;;;5035300;28;20177;-67
2020/12/12 10:37:56;;;;;;;12.00;8.20;;;8.20;1.00;;;;;;5035357;28;20243;-67
2020/12/12 10:42:48;;;;;;;9.13;7.67;;;8.20;99.90;;;;;;5034936;28;20669;-67
2020/12/12 10:45:14;;;;;;;13.77;7.93;;;8.20;99.90;;;;;;5034707;28;20400;-67
2020/12/12 10:47:40;;;;;;;11.95;6.75;;;8.20;99.90;;;;;;5034464;28;20200;-67
2020/12/12 10:50:07;;;;;;;10.10;7.03;;;8.20;99.90;;;;;;5034368;28;20178;-67
2020/12/12 10:52:34;;;;;;;9.50;7.07;;;8.20;99.90;;;;;;5034163;28;20173;-67
2020/12/12 10:55:00;;;;;;;13.25;9.02;;;8.20;99.90;;;;;;5034088;28;20260;-67
2020/12/12 10:57:26;;;;;;;11.00;9.00;;;8.30;9.80;;;;;;5034134;28;20299;-67
2020/12/12 10:59:51;;;;;;;11.30;7.70;;;8.30;1.00;;;;;;5034210;28;20468;-67
2020/12/12 11:02:17;;;;;;;11.70;8.40;;;8.20;14.80;;;;;;5034059;28;20162;-66
2020/12/12 11:04:43;;;;;;;8.50;7.00;;;8.20;84.30;;;;;;5034415;28;20180;-67
2020/12/12 11:07:10;;;;;;;10.40;7.90;;;8.20;1.00;;;;;;5034224;28;20314;-66
2020/12/12 11:09:35;;;;;;;14.25;7.60;;;8.30;1.00;;;;;;5034063;28;20776;-67
2020/12/12 11:12:02;;;;;;;10.43;7.30;;;8.40;99.90;;;;;;5035273;28;20692;-66
2020/12/12 11:14:29;;;;;;;9.70;6.80;;;8.40;99.90;;;;;;5033939;28;20192;-67
2020/12/12 11:16:56;;;;;;;13.45;9.80;;;8.40;99.90;;;;;;5033891;28;20417;-67
2020/12/12 11:19:23;;;;;;;8.47;7.07;;;8.40;99.90;;;;;;5098627;22;20227;-69
2020/12/12 11:21:51;;;;;;;10.40;8.10;;;8.40;1.00;;;;;;5093907;28;20453;-66
2020/12/12 11:24:17;;;;;;;8.37;7.00;;;8.30;99.90;;;;;;5093607;28;20256;-69
2020/12/12 11:26:44;;;;;;;15.70;10.30;;;8.30;1.00;;;;;;5093539;28;20430;-67
2020/12/12 11:29:10;;;;;;;17.90;12.20;;;8.40;1.00;;;;;;5093797;28;20238;-68
2020/12/12 11:31:37;;;;;;;17.40;11.20;;;8.50;99.90;;;;;;5093433;28;20421;-68
2020/12/12 11:34:48;;;;;;;15.60;10.35;;;8.40;1.00;;;;;;5093703;28;20459;-68
2020/12/12 11:39:25;;;;;;;9.27;7.97;;;8.50;1.00;;;;;;5093654;28;20465;-68
2020/12/12 11:44:54;;;;;;;11.20;8.50;;;8.30;1.00;;;;;;5060022;28;20535;-67
2020/12/12 11:47:24;;;;;;;9.90;7.50;;;8.40;99.90;;;;;;5093781;28;20147;-68
2020/12/12 11:49:50;;;;;;;11.80;7.00;;;8.40;99.90;;;;;;5095071;28;20462;-68
2020/12/12 11:52:16;;;;;;;11.70;9.03;;;8.30;1.00;;;;;;5094086;28;20406;-66
2020/12/12 11:54:41;;;;;;;14.03;9.77;;;8.40;99.90;;;;;;5093638;28;20171;-66
2020/12/12 11:57:08;;;;;;;11.10;9.03;;;8.40;99.90;;;;;;5094068;28;20576;-68
2020/12/12 11:59:34;;;;;;;10.10;7.97;;;8.50;42.00;;;;;;5092935;28;20179;-68
2020/12/12 12:01:59;;;;;;;9.93;7.87;;;8.50;99.90;;;;;;5094117;28;20405;-68
2020/12/12 12:04:25;;;;;;;9.90;8.00;;;8.40;99.90;;;;;;5093963;28;20203;-67
2020/12/12 12:06:50;;;;;;;10.90;7.80;;;8.30;99.90;;;;;;5093799;28;20169;-68
2020/12/12 12:09:25;;;;;;;8.90;6.50;;;8.40;99.90;;;;;;5093610;28;20672;-67
2020/12/12 12:11:52;;;;;;;9.65;7.50;;;8.40;99.90;;;;;;5091710;28;20163;-68
2020/12/12 12:14:17;;;;;;;10.32;7.53;;;8.30;17.60;;;;;;5093183;28;20201;-67
2020/12/12 12:16:43;;;;;;;10.20;6.60;;;8.40;99.90;;;;;;5093061;28;20183;-67
2020/12/12 12:19:13;;;;;;;9.80;8.20;;;8.50;99.90;;;;;;5092740;28;20213;-68
2020/12/12 12:21:40;;;;;;;10.30;7.53;;;8.50;1.00;;;;;;5093247;28;20272;-68
2020/12/12 12:24:14;;;;;;;8.80;6.93;;;8.70;99.90;;;;;;5092875;28;20404;-67
2020/12/12 12:26:40;;;;;;;15.80;10.52;;;8.80;99.90;;;;;;5092888;28;20419;-68
2020/12/12 12:29:07;;;;;;;13.30;9.70;;;8.70;99.90;;;;;;5092875;28;20274;-68
2020/12/12 12:31:35;;;;;;;27.30;14.20;;;8.80;99.90;;;;;;5093721;28;20653;-68
2020/12/12 12:34:01;;;;;;;18.92;10.25;;;8.60;99.90;;;;;;5092720;28;20442;-67
2020/12/12 12:36:28;;;;;;;14.60;10.20;;;8.40;99.90;;;;;;5092653;28;20659;-68
2020/12/12 12:38:55;;;;;;;14.93;11.27;;;8.60;99.90;;;;;;5092693;28;20266;-68
2020/12/12 12:41:20;;;;;;;12.63;8.40;;;8.60;1.00;;;;;;5092921;28;20463;-67
2020/12/12 12:43:48;;;;;;;11.90;8.83;;;8.80;1.00;;;;;;5092851;28;20413;-68
2020/12/12 12:46:14;;;;;;;10.07;7.67;;;8.80;23.60;;;;;;5092935;28;20171;-67
2020/12/12 12:48:39;;;;;;;9.10;7.27;;;8.80;99.90;;;;;;5092753;28;20482;-68
2020/12/12 12:51:06;;;;;;;9.90;7.30;;;8.90;99.90;;;;;;5092608;28;20565;-68
2020/12/12 12:53:32;;;;;;;8.60;6.87;;;8.70;1.00;;;;;;5092470;28;20206;-68
2020/12/12 12:55:58;;;;;;;11.27;7.63;;;8.70;99.90;;;;;;5092907;28;20448;-68
2020/12/12 12:58:24;;;;;;;13.10;8.20;;;8.70;1.00;;;;;;5092355;28;20416;-68
2020/12/12 13:00:50;;;;;;;16.83;11.13;;;8.90;1.00;;;;;;5090419;28;20945;-67
2020/12/12 13:03:15;;;;;;;13.90;9.60;;;9.00;1.00;;;;;;5090233;28;20519;-67